Time;durP1;ratioP1;P1;durP2;ratioP2;P2;SDS_P1;SDS_P2;PMS_P1;PMS_P2;Temp;Humidity;BMP_temperature;BMP_pressure;BME280_temperature;BME280_humidity;BME280_pressure;Samples;Min_cycle;Max_cycle;Signal;HPM_P1;HPM_P2
2021/10/17 00:00:35;;;;;;;13.50;6.00;;;;;;;8.98;100.00;101962.88;2615561;36;20141;-65
2021/10/17 00:03:04;;;;;;;14.55;5.97;;;;;;;8.91;100.00;101955.22;2616356;36;20532;-64
2021/10/17 00:05:35;;;;;;;12.23;6.05;;;;;;;8.93;100.00;101965.88;2615935;36;20038;-64
2021/10/17 00:08:04;;;;;;;13.77;6.30;;;;;;;8.92;100.00;101954.28;2616247;36;20182;-65
2021/10/17 00:10:33;;;;;;;;;;;;;;;8.91;100.00;101951.69;2616060;36;20037;-66
2021/10/17 00:13:03;;;;;;;13.15;5.95;;;;;;;8.92;100.00;101953.38;2615811;36;20026;-64
2021/10/17 00:15:36;;;;;;;12.68;5.95;;;;;;;8.92;100.00;101950.69;2615683;36;20676;-63
2021/10/17 00:18:06;;;;;;;10.52;5.38;;;;;;;8.94;100.00;101954.19;2615688;36;20611;-65
2021/10/17 00:20:35;;;;;;;14.52;5.55;;;;;;;8.94;100.00;101949.66;2615661;36;20030;-65
2021/10/17 00:23:04;;;;;;;18.58;5.60;;;;;;;8.94;100.00;101955.03;2615888;36;20130;-66
2021/10/17 00:25:32;;;;;;;15.00;5.93;;;;;;;8.94;100.00;101952.34;2615791;36;20223;-64
2021/10/17 00:28:00;;;;;;;14.55;5.95;;;;;;;8.87;100.00;101940.25;2615533;31;20122;-63
2021/10/17 00:30:29;;;;;;;13.02;6.57;;;;;;;8.87;100.00;101944.78;2615788;36;20118;-64
2021/10/17 00:32:59;;;;;;;17.17;6.03;;;;;;;8.90;100.00;101947.28;2616152;36;20062;-65
2021/10/17 00:35:28;;;;;;;15.77;6.07;;;;;;;8.93;100.00;101947.06;2615812;31;20121;-64
2021/10/17 00:37:56;;;;;;;10.50;6.10;;;;;;;9.03;100.00;101950.03;2616007;36;20160;-63
2021/10/17 00:40:24;;;;;;;12.23;5.40;;;;;;;9.10;100.00;101957.59;2615547;31;20125;-65
2021/10/17 00:42:56;;;;;;;19.15;6.13;;;;;;;9.06;100.00;101961.44;2615711;36;20122;-64
2021/10/17 00:45:27;;;;;;;12.43;5.97;;;;;;;8.97;100.00;101955.81;2616243;36;20419;-66
2021/10/17 00:47:56;;;;;;;11.77;5.85;;;;;;;8.85;100.00;101954.75;2615593;36;20033;-66
2021/10/17 00:50:27;;;;;;;14.25;6.35;;;;;;;8.82;100.00;101953.13;2615864;36;20062;-64
2021/10/17 00:52:56;;;;;;;12.75;5.90;;;;;;;8.86;100.00;101953.78;2615643;36;20642;-65
2021/10/17 00:55:28;;;;;;;11.98;6.30;;;;;;;8.78;100.00;101943.53;2615567;36;20035;-63
2021/10/17 00:57:59;;;;;;;11.90;5.78;;;;;;;8.75;100.00;101947.28;2615293;36;20054;-64
2021/10/17 01:00:27;;;;;;;11.63;5.70;;;;;;;8.75;100.00;101939.22;2615246;36;20041;-65
2021/10/17 01:02:56;;;;;;;14.27;6.13;;;;;;;8.75;100.00;101941.91;2615458;36;20167;-65
2021/10/17 01:05:30;;;;;;;12.98;6.22;;;;;;;8.73;100.00;101943.84;2614464;54;20172;-64
2021/10/17 01:07:58;;;;;;;12.55;6.47;;;;;;;8.75;100.00;101946.44;2615626;31;20069;-63
2021/10/17 01:10:29;;;;;;;11.38;5.95;;;;;;;8.77;100.00;101944.50;2615753;36;20495;-66
2021/10/17 01:12:57;;;;;;;12.15;6.10;;;;;;;8.68;100.00;101947.78;2615339;36;20122;-64
2021/10/17 01:15:25;;;;;;;12.80;6.03;;;;;;;8.72;100.00;101936.75;2615323;36;20086;-64
2021/10/17 01:17:53;;;;;;;11.30;5.75;;;;;;;8.68;100.00;101945.94;2615500;36;20110;-64
2021/10/17 01:20:25;;;;;;;11.80;5.70;;;;;;;8.74;100.00;101945.53;2614771;36;20639;-64
2021/10/17 01:22:54;;;;;;;16.60;5.88;;;;;;;8.72;100.00;101950.16;2615779;36;20550;-64
2021/10/17 01:25:22;;;;;;;12.43;5.80;;;;;;;8.75;100.00;101949.97;2615509;36;20612;-66
2021/10/17 01:27:50;;;;;;;12.82;6.55;;;;;;;8.93;100.00;101949.75;2615016;36;20118;-63
2021/10/17 01:30:20;;;;;;;14.73;6.18;;;;;;;8.96;100.00;101938.81;2615285;36;20149;-65
2021/10/17 01:32:49;;;;;;;11.38;6.13;;;;;;;8.83;100.00;101946.78;2615387;36;20030;-63
2021/10/17 01:35:17;;;;;;;13.60;5.68;;;;;;;8.89;100.00;101943.72;2615246;36;20129;-65
2021/10/17 01:37:48;;;;;;;10.73;5.60;;;;;;;8.92;100.00;101943.53;2615674;31;20155;-65
2021/10/17 01:40:16;;;;;;;12.10;6.53;;;;;;;8.75;100.00;101946.44;2615348;36;20163;-64
2021/10/17 01:42:45;;;;;;;16.83;6.47;;;;;;;8.60;100.00;101942.91;2615180;36;20161;-66
2021/10/17 01:45:13;;;;;;;13.43;6.30;;;;;;;8.53;100.00;101938.88;2615187;36;20171;-64
2021/10/17 01:47:47;;;;;;;15.35;6.28;;;;;;;8.58;100.00;101939.44;2615350;36;20158;-66
2021/10/17 01:50:15;;;;;;;14.40;6.38;;;;;;;8.52;100.00;101950.56;2615358;36;20576;-64
2021/10/17 01:52:44;;;;;;;12.83;6.67;;;;;;;8.52;100.00;101934.47;2616267;31;20118;-64
2021/10/17 01:55:15;;;;;;;12.32;5.82;;;;;;;8.46;100.00;101938.38;2615221;36;20370;-64
2021/10/17 01:57:43;;;;;;;13.60;7.00;;;;;;;8.49;100.00;101930.13;2615258;36;20073;-63
2021/10/17 02:00:12;;;;;;;14.80;6.65;;;;;;;8.55;100.00;101928.91;2614892;36;20155;-66
2021/10/17 02:02:40;;;;;;;13.02;6.13;;;;;;;8.54;100.00;101922.69;2615002;36;20773;-64
2021/10/17 02:05:09;;;;;;;11.63;6.32;;;;;;;8.59;100.00;101931.28;2616615;31;20524;-64
2021/10/17 02:07:37;;;;;;;13.75;6.93;;;;;;;8.50;100.00;101922.97;2615517;36;20038;-66
2021/10/17 02:10:08;;;;;;;13.10;6.72;;;;;;;8.44;100.00;101926.91;2615146;36;20034;-64
2021/10/17 02:12:39;;;;;;;15.38;6.57;;;;;;;8.48;100.00;101935.59;2615320;36;20121;-65
2021/10/17 02:15:08;;;;;;;12.93;6.53;;;;;;;8.46;100.00;101935.69;2614588;36;20114;-65
2021/10/17 02:20:21;;;;;;;15.63;7.63;;;;;;;8.47;100.00;101932.06;2614501;36;20041;-65
2021/10/17 02:22:49;;;;;;;14.70;7.05;;;;;;;8.47;100.00;101931.22;2615667;36;20613;-65
2021/10/17 02:25:17;;;;;;;14.05;7.13;;;;;;;8.44;100.00;101926.91;2615442;36;20129;-63
2021/10/17 02:27:48;;;;;;;15.07;7.47;;;;;;;8.41;100.00;101921.69;2615147;36;20063;-65
2021/10/17 02:30:16;;;;;;;14.38;7.13;;;;;;;8.46;100.00;101924.13;2615412;36;20539;-66
2021/10/17 02:32:44;;;;;;;12.35;6.80;;;;;;;8.47;100.00;101920.47;2615154;36;20162;-63
2021/10/17 02:35:13;;;;;;;14.35;7.07;;;;;;;8.47;100.00;101910.59;2615379;36;20038;-65
2021/10/17 02:37:41;;;;;;;11.63;6.82;;;;;;;8.42;100.00;101918.03;2615476;31;20122;-66
2021/10/17 02:40:10;;;;;;;13.10;6.82;;;;;;;8.37;100.00;101915.63;2615309;36;20111;-64
2021/10/17 02:42:38;;;;;;;14.93;6.57;;;;;;;8.43;100.00;101911.72;2615285;36;20194;-65
2021/10/17 02:45:10;;;;;;;15.85;7.65;;;;;;;8.38;100.00;101911.16;2614701;36;20113;-63
2021/10/17 02:47:38;;;;;;;14.43;7.20;;;;;;;8.41;100.00;101916.31;2615156;36;20167;-64
2021/10/17 02:50:07;;;;;;;18.17;7.30;;;;;;;8.38;100.00;101912.00;2615241;36;20179;-64
2021/10/17 02:52:36;;;;;;;16.77;7.43;;;;;;;8.36;100.00;101908.56;2615337;36;20086;-63
2021/10/17 02:55:04;;;;;;;16.58;7.55;;;;;;;8.33;100.00;101914.13;2615103;36;20640;-64
2021/10/17 02:57:32;;;;;;;19.53;7.43;;;;;;;8.35;100.00;101906.84;2615251;31;20133;-65
2021/10/17 03:00:00;;;;;;;15.25;7.18;;;;;;;8.39;100.00;101905.69;2615056;36;20126;-65
2021/10/17 03:02:31;;;;;;;13.10;7.35;;;;;;;8.32;100.00;101912.41;2614942;36;20034;-66
2021/10/17 03:04:59;;;;;;;16.35;7.65;;;;;;;8.31;100.00;101910.66;2615355;36;20070;-66
2021/10/17 03:07:28;;;;;;;12.75;6.93;;;;;;;8.29;100.00;101917.06;2615311;36;20126;-66
2021/10/17 03:09:56;;;;;;;19.45;7.20;;;;;;;8.29;100.00;101912.59;2615214;36;20126;-65
2021/10/17 03:12:24;;;;;;;15.68;7.40;;;;;;;8.30;100.00;101913.44;2615193;36;20125;-65
2021/10/17 03:14:52;;;;;;;17.85;7.50;;;;;;;8.25;100.00;101906.53;2615315;36;20204;-65
2021/10/17 03:17:20;;;;;;;14.45;6.97;;;;;;;8.27;100.00;101909.13;2615356;31;20147;-65
2021/10/17 03:19:51;;;;;;;11.00;6.72;;;;;;;8.24;100.00;101903.94;2615190;36;20659;-65
2021/10/17 03:22:20;;;;;;;15.90;7.05;;;;;;;8.21;100.00;101904.16;2614884;36;20696;-66
2021/10/17 03:24:48;;;;;;;17.25;8.60;;;;;;;8.21;100.00;101898.78;2615390;36;20141;-65
2021/10/17 03:27:16;;;;;;;12.95;7.53;;;;;;;8.23;100.00;101896.88;2614173;39;20264;-65
2021/10/17 03:29:44;;;;;;;15.50;6.97;;;;;;;8.27;100.00;101884.13;2614474;36;20162;-65
2021/10/17 03:32:12;;;;;;;12.85;7.63;;;;;;;8.23;100.00;101886.16;2614479;36;20122;-66
2021/10/17 03:34:41;;;;;;;17.58;7.53;;;;;;;8.19;100.00;101890.84;2615090;36;20147;-65
2021/10/17 03:37:11;;;;;;;16.42;7.95;;;;;;;8.19;100.00;101884.63;2615407;36;20466;-63
2021/10/17 03:39:40;;;;;;;18.42;7.72;;;;;;;8.17;100.00;101892.75;2615211;36;20122;-65
2021/10/17 03:42:08;;;;;;;19.42;7.75;;;;;;;8.19;100.00;101892.66;2614901;36;20126;-65
2021/10/17 03:44:36;;;;;;;18.63;8.18;;;;;;;8.16;100.00;101888.34;2615157;36;20038;-65
2021/10/17 03:47:05;;;;;;;15.65;8.40;;;;;;;8.13;100.00;101890.38;2614992;36;20125;-65
2021/10/17 03:49:33;;;;;;;20.65;8.02;;;;;;;8.11;100.00;101892.25;2615776;31;20518;-64
2021/10/17 03:52:01;;;;;;;14.10;7.37;;;;;;;8.11;100.00;101897.63;2615213;36;20146;-63
2021/10/17 03:57:00;;;;;;;17.20;7.93;;;;;;;8.07;100.00;101897.81;2613285;36;20031;-64
2021/10/17 03:59:29;;;;;;;15.35;8.35;;;;;;;8.07;100.00;101895.13;2614623;36;20642;-65
2021/10/17 04:01:57;;;;;;;14.52;8.00;;;;;;;8.12;100.00;101894.00;2614890;36;20185;-63
2021/10/17 04:04:25;;;;;;;17.88;8.30;;;;;;;8.07;100.00;101889.78;2613615;31;20650;-65
2021/10/17 04:06:53;;;;;;;13.43;7.93;;;;;;;8.13;100.00;101895.72;2614962;36;20158;-65
2021/10/17 04:09:21;;;;;;;14.93;8.27;;;;;;;8.03;100.00;101890.91;2614497;36;20529;-64
2021/10/17 04:11:51;;;;;;;17.98;8.70;;;;;;;8.03;100.00;101890.91;2614902;36;20161;-64
2021/10/17 04:14:22;;;;;;;14.65;7.75;;;;;;;7.99;100.00;101888.53;2614448;36;20038;-64
2021/10/17 04:16:50;;;;;;;16.27;7.90;;;;;;;7.98;100.00;101892.13;2614724;36;20622;-65
2021/10/17 04:19:18;;;;;;;22.35;8.27;;;;;;;7.98;100.00;101892.13;2614810;36;20161;-64
2021/10/17 04:21:46;;;;;;;15.82;8.25;;;;;;;7.94;100.00;101890.63;2615271;36;20118;-65
2021/10/17 04:24:14;;;;;;;17.33;8.07;;;;;;;7.91;100.00;101891.69;2614430;36;20146;-65
2021/10/17 04:26:43;;;;;;;12.93;7.82;;;;;;;7.95;100.00;101886.97;2615025;36;20161;-64
2021/10/17 04:29:11;;;;;;;14.65;7.35;;;;;;;7.92;100.00;101884.47;2614732;36;20151;-65
2021/10/17 04:31:42;;;;;;;13.73;7.80;;;;;;;7.86;100.00;101888.41;2614625;36;20038;-64
2021/10/17 04:34:10;;;;;;;17.50;8.52;;;;;;;7.86;100.00;101889.28;2614983;36;20547;-65
2021/10/17 04:36:39;;;;;;;17.00;8.25;;;;;;;7.86;100.00;101888.41;2615149;36;20125;-66
2021/10/17 04:39:09;;;;;;;14.13;7.60;;;;;;;7.87;100.00;101885.63;2615243;36;20153;-63
2021/10/17 04:41:37;;;;;;;15.57;7.85;;;;;;;7.83;100.00;101893.94;2614356;36;20322;-63
2021/10/17 04:44:05;;;;;;;17.02;8.55;;;;;;;7.75;100.00;101888.19;2614890;36;20126;-65
2021/10/17 04:46:33;;;;;;;17.57;8.07;;;;;;;7.75;100.00;101886.38;2614134;36;20134;-65
2021/10/17 04:49:05;;;;;;;21.10;8.43;;;;;;;7.75;100.00;101878.34;2615938;36;20303;-64
2021/10/17 04:51:33;;;;;;;15.77;7.82;;;;;;;7.70;100.00;101886.66;2615706;36;20146;-65
2021/10/17 04:54:01;;;;;;;13.32;7.93;;;;;;;7.68;100.00;101879.66;2615613;36;20138;-65
2021/10/17 04:56:29;;;;;;;14.60;8.15;;;;;;;7.62;100.00;101875.53;2615876;31;20484;-65
2021/10/17 04:58:58;;;;;;;18.70;8.88;;;;;;;7.58;100.00;101882.00;2615667;36;20059;-64
2021/10/17 05:01:27;;;;;;;17.27;7.78;;;;;;;7.59;100.00;101872.19;2615148;36;20078;-64
2021/10/17 05:03:55;;;;;;;21.48;7.93;;;;;;;7.63;100.00;101879.09;2616111;36;20432;-65
2021/10/17 05:06:26;;;;;;;16.13;7.82;;;;;;;7.64;100.00;101880.78;2615039;36;20571;-65
2021/10/17 05:08:54;;;;;;;11.70;7.90;;;;;;;7.59;100.00;101878.38;2615631;36;20130;-64
2021/10/17 05:11:25;;;;;;;17.45;8.40;;;;;;;7.59;100.00;101881.06;2615094;36;20173;-65
2021/10/17 05:13:53;;;;;;;15.73;8.00;;;;;;;7.67;100.00;101875.25;2615606;36;20031;-65
2021/10/17 05:16:21;;;;;;;15.98;8.60;;;;;;;7.61;100.00;101871.13;2614802;31;20643;-66
2021/10/17 05:18:50;;;;;;;19.77;8.95;;;;;;;7.54;100.00;101873.31;2615698;36;20523;-65
2021/10/17 05:21:18;;;;;;;18.63;8.20;;;;;;;7.57;100.00;101877.63;2615505;36;20126;-65
2021/10/17 05:23:49;;;;;;;15.32;8.63;;;;;;;7.57;100.00;101874.94;2615725;36;20169;-66
2021/10/17 05:26:17;;;;;;;15.65;8.73;;;;;;;7.62;100.00;101875.53;2615990;36;20543;-63
2021/10/17 05:28:45;;;;;;;14.13;7.80;;;;;;;7.63;100.00;101876.41;2615448;36;20121;-66
2021/10/17 05:31:13;;;;;;;13.57;8.65;;;;;;;7.60;100.00;101876.59;2614909;36;20042;-63
2021/10/17 05:33:43;;;;;;;15.07;8.68;;;;;;;7.60;100.00;101877.44;2616044;36;20171;-65
2021/10/17 05:36:13;;;;;;;18.05;9.13;;;;;;;7.58;100.00;101879.34;2615075;36;20026;-65
2021/10/17 05:38:41;;;;;;;17.25;8.52;;;;;;;7.59;100.00;101880.22;2615893;36;20038;-65
2021/10/17 05:41:12;;;;;;;13.32;8.05;;;;;;;7.63;100.00;101887.97;2615408;36;20041;-65
2021/10/17 05:43:40;;;;;;;16.98;8.68;;;;;;;7.60;100.00;101898.03;2615529;36;20030;-66
2021/10/17 05:46:09;;;;;;;15.70;8.07;;;;;;;7.56;100.00;101901.84;2615820;36;20541;-65
2021/10/17 05:48:37;;;;;;;16.60;8.52;;;;;;;7.51;100.00;101902.13;2615369;36;20535;-63
2021/10/17 05:51:05;;;;;;;16.77;8.48;;;;;;;7.46;100.00;101901.50;2615900;36;20426;-64
2021/10/17 05:53:33;;;;;;;15.25;8.43;;;;;;;7.44;100.00;101903.41;2615132;36;21054;-64
2021/10/17 05:56:02;;;;;;;18.40;8.70;;;;;;;7.46;100.00;101901.50;2615369;36;20519;-64
2021/10/17 05:58:32;;;;;;;14.88;8.75;;;;;;;7.49;100.00;101912.03;2615178;36;20118;-64
2021/10/17 06:01:01;;;;;;;19.88;8.65;;;;;;;7.42;100.00;101907.97;2615602;36;20125;-63
2021/10/17 06:03:29;;;;;;;13.48;8.82;;;;;;;7.40;100.00;101907.22;2615136;36;20129;-64
2021/10/17 06:06:01;;;;;;;16.52;9.20;;;;;;;7.36;100.00;101920.78;2616434;31;20062;-66
2021/10/17 06:08:30;;;;;;;17.58;9.20;;;;;;;7.33;100.00;101918.31;2615508;31;20053;-65
2021/10/17 06:10:58;;;;;;;;;;;;;;;7.35;100.00;101912.84;2615780;36;20034;-66
2021/10/17 06:13:26;;;;;;;14.38;8.10;;;;;;;7.40;100.00;101918.78;2615265;36;20700;-66
2021/10/17 06:15:57;;;;;;;16.13;8.73;;;;;;;7.50;100.00;101921.81;2615585;36;20682;-65
2021/10/17 06:18:25;;;;;;;16.48;9.35;;;;;;;7.45;100.00;101926.56;2615535;36;20157;-64
2021/10/17 06:20:53;;;;;;;17.17;9.57;;;;;;;7.49;100.00;101936.13;2615789;31;20078;-65
2021/10/17 06:23:22;;;;;;;19.15;9.15;;;;;;;7.51;100.00;101923.53;2615866;36;20146;-66
2021/10/17 06:25:50;;;;;;;16.42;8.73;;;;;;;7.55;100.00;101930.41;2615768;36;20030;-63
2021/10/17 06:28:18;;;;;;;14.57;8.38;;;;;;;7.60;100.00;101936.38;2615158;36;20126;-65
2021/10/17 06:30:46;;;;;;;17.10;9.23;;;;;;;7.63;100.00;101935.34;2615454;36;20041;-66
2021/10/17 06:33:17;;;;;;;19.55;9.57;;;;;;;7.65;100.00;101928.94;2615310;36;20075;-66
2021/10/17 06:35:45;;;;;;;13.75;8.70;;;;;;;7.70;100.00;101937.56;2615709;36;20130;-65
2021/10/17 06:38:13;;;;;;;20.00;8.95;;;;;;;7.77;100.00;101945.25;2615341;32;20163;-65
2021/10/17 06:40:42;;;;;;;18.10;9.00;;;;;;;7.79;100.00;101944.19;2615714;36;20034;-64
2021/10/17 06:43:10;;;;;;;18.50;9.35;;;;;;;7.75;100.00;101949.84;2615795;36;20532;-65
2021/10/17 06:45:38;;;;;;;23.83;10.20;;;;;;;7.76;100.00;101946.19;2615519;36;20170;-66
2021/10/17 06:48:07;;;;;;;18.30;8.88;;;;;;;7.79;100.00;101946.88;2615079;31;20034;-66
2021/10/17 06:50:38;;;;;;;16.73;9.48;;;;;;;7.82;100.00;101945.84;2615646;36;20081;-64
2021/10/17 06:53:06;;;;;;;19.30;9.38;;;;;;;7.84;100.00;101942.09;2615738;36;20109;-64
2021/10/17 06:55:34;;;;;;;19.95;9.68;;;;;;;7.83;100.00;101942.19;2614550;36;20055;-66
2021/10/17 06:58:02;;;;;;;16.70;9.43;;;;;;;7.87;100.00;101927.66;2615048;36;20158;-66
2021/10/17 07:00:30;;;;;;;18.55;9.65;;;;;;;7.90;100.00;101946.22;2615618;36;20122;-65
2021/10/17 07:02:58;;;;;;;19.52;9.50;;;;;;;7.92;100.00;101940.78;2615362;36;20125;-66
2021/10/17 07:05:27;;;;;;;19.10;9.98;;;;;;;8.03;100.00;101943.69;2615650;31;20516;-66
2021/10/17 07:07:57;;;;;;;16.98;8.82;;;;;;;8.00;100.00;101944.72;2615696;36;20133;-64
2021/10/17 07:10:26;;;;;;;18.98;9.10;;;;;;;8.01;100.00;101951.81;2614744;36;20117;-66
2021/10/17 07:12:54;;;;;;;16.45;9.52;;;;;;;8.02;100.00;101948.19;2615330;36;20122;-65
2021/10/17 07:15:22;;;;;;;20.95;10.10;;;;;;;8.06;100.00;101944.34;2615882;36;20430;-65
2021/10/17 07:17:50;;;;;;;17.77;10.15;;;;;;;8.13;100.00;101960.09;2615197;36;20619;-65
2021/10/17 07:20:18;;;;;;;18.70;10.52;;;;;;;8.29;100.00;101944.78;2615220;36;20162;-64
2021/10/17 07:22:47;;;;;;;19.05;9.98;;;;;;;8.31;100.00;101953.56;2615485;36;20030;-63
2021/10/17 07:25:18;;;;;;;19.77;10.20;;;;;;;8.32;100.00;101944.59;2615337;36;20188;-63
2021/10/17 07:27:46;;;;;;;18.45;10.07;;;;;;;8.45;100.00;101943.84;2615643;36;20469;-64
2021/10/17 07:30:14;;;;;;;16.25;9.52;;;;;;;8.49;100.00;101940.88;2615042;36;20110;-65
2021/10/17 07:32:43;;;;;;;20.83;10.68;;;;;;;8.56;100.00;101941.38;2615329;36;20122;-64
2021/10/17 07:35:11;;;;;;;18.48;10.35;;;;;;;8.65;100.00;101951.50;2613504;54;20122;-65
2021/10/17 07:37:39;;;;;;;19.40;10.55;;;;;;;8.68;100.00;101939.72;2615283;36;20039;-63
2021/10/17 07:40:09;;;;;;;18.38;10.77;;;;;;;8.75;100.00;101946.44;2615223;36;20037;-64
2021/10/17 07:42:40;;;;;;;19.55;9.90;;;;;;;8.87;100.00;101944.78;2615181;36;20143;-63
2021/10/17 07:45:09;;;;;;;21.50;9.73;;;;;;;8.92;100.00;101948.03;2615009;36;20061;-64
2021/10/17 07:47:38;;;;;;;18.73;10.45;;;;;;;8.93;100.00;101944.38;2615083;36;20122;-64
2021/10/17 07:50:08;;;;;;;18.52;9.38;;;;;;;8.92;100.00;101937.28;2615093;31;20643;-64
2021/10/17 07:52:37;;;;;;;20.30;9.32;;;;;;;8.83;100.00;101941.41;2615145;36;20113;-64
2021/10/17 07:55:05;;;;;;;24.03;10.10;;;;;;;8.87;100.00;101940.25;2615261;36;20146;-65
2021/10/17 07:57:50;;;;;;;17.85;9.70;;;;;;;8.94;100.00;101943.44;2615536;31;20614;-66
2021/10/17 08:00:20;;;;;;;22.13;9.82;;;;;;;8.90;100.00;101933.84;2614842;36;20538;-66
2021/10/17 08:02:49;;;;;;;20.45;9.93;;;;;;;8.90;100.00;101934.69;2614958;36;20074;-65
2021/10/17 08:05:17;;;;;;;19.45;8.85;;;;;;;8.98;100.00;101946.78;2615243;36;20643;-64
2021/10/17 08:07:45;;;;;;;17.80;10.05;;;;;;;8.96;100.00;101943.34;2615240;36;20033;-64
2021/10/17 08:10:14;;;;;;;20.35;10.65;;;;;;;9.02;100.00;101946.47;2614790;36;20632;-64
2021/10/17 08:12:42;;;;;;;;;;;;;;;9.07;100.00;101949.72;2615318;36;20117;-65
2021/10/17 08:15:13;;;;;;;17.15;9.93;;;;;;;9.12;100.00;101954.81;2615036;36;20045;-65
2021/10/17 08:17:42;;;;;;;15.60;10.25;;;;;;;9.17;100.00;101951.81;2615141;36;20159;-64
2021/10/17 08:20:11;;;;;;;20.02;10.07;;;;;;;9.22;100.00;101952.38;2615399;36;20159;-64
2021/10/17 08:22:39;;;;;;;;;;;;;;;9.27;100.00;101943.03;2616253;31;20142;-64
2021/10/17 08:25:08;;;;;;;15.75;9.43;;;;;;;9.32;100.00;101945.44;2615763;36;19951;-65
2021/10/17 08:27:37;;;;;;;16.17;10.40;;;;;;;9.44;100.00;101949.16;2615940;36;20149;-64
2021/10/17 08:30:08;;;;;;;17.67;10.25;;;;;;;9.41;100.00;101950.19;2615642;36;20560;-65
2021/10/17 08:32:39;;;;;;;17.92;10.02;;;;;;;9.46;100.00;101953.44;2615765;36;20274;-64
2021/10/17 08:35:08;;;;;;;18.13;10.15;;;;;;;9.54;100.00;101949.38;2616001;36;20031;-64
2021/10/17 08:37:36;;;;;;;17.40;10.45;;;;;;;9.51;100.00;101949.59;2616194;36;20065;-64
2021/10/17 08:40:06;;;;;;;18.23;10.20;;;;;;;9.52;100.00;101946.78;2615925;31;20133;-64
2021/10/17 08:42:34;;;;;;;19.67;9.73;;;;;;;9.58;100.00;101953.59;2615639;36;20118;-66
2021/10/17 08:45:03;;;;;;;18.80;10.10;;;;;;;9.57;100.00;101947.38;2615707;36;20204;-64
2021/10/17 08:47:31;;;;;;;18.05;10.30;;;;;;;9.54;100.00;101941.31;2615859;36;20030;-64
2021/10/17 08:50:03;;;;;;;17.33;9.50;;;;;;;9.56;100.00;101945.63;2616133;36;20173;-65
2021/10/17 08:52:31;;;;;;;19.98;10.23;;;;;;;9.59;100.00;101939.19;2615784;36;20751;-65
2021/10/17 08:54:59;;;;;;;20.10;9.98;;;;;;;9.62;100.00;101944.34;2615934;36;20038;-64
2021/10/17 08:57:27;;;;;;;18.88;10.43;;;;;;;9.71;100.00;101941.03;2615917;31;20057;-65
2021/10/17 08:59:57;;;;;;;19.83;9.73;;;;;;;9.67;100.00;101936.84;2615801;36;20181;-66
2021/10/17 09:02:26;;;;;;;19.50;10.70;;;;;;;9.76;100.00;101944.28;2615724;36;20463;-64
2021/10/17 09:05:07;;;;;;;18.58;11.18;;;;;;;9.77;100.00;101947.84;2615691;36;20601;-65
2021/10/17 09:07:35;;;;;;;22.55;11.52;;;;;;;9.84;100.00;101934.84;2615750;36;20030;-66
2021/10/17 09:10:09;;;;;;;20.23;10.38;;;;;;;9.97;100.00;101941.09;2616021;36;20192;-65
2021/10/17 09:15:24;;;;;;;16.45;9.57;;;;;;;10.22;100.00;101940.25;2615853;46;20062;-64
2021/10/17 09:18:15;;;;;;;17.65;9.82;;;;;;;10.37;100.00;101940.19;2615777;36;20055;-64
2021/10/17 09:21:01;;;;;;;17.80;9.77;;;;;;;10.70;100.00;101942.28;2616107;36;20027;-65
2021/10/17 09:23:35;;;;;;;18.45;9.73;;;;;;;10.69;100.00;101943.28;2615711;31;20030;-63
2021/10/17 09:26:10;;;;;;;17.98;9.60;;;;;;;10.87;100.00;101933.84;2616116;36;20121;-65
2021/10/17 09:28:39;;;;;;;18.90;10.23;;;;;;;10.93;100.00;101935.25;2615337;36;20082;-65
2021/10/17 09:31:09;;;;;;;16.08;9.60;;;;;;;10.91;100.00;101930.94;2615469;36;20142;-64
2021/10/17 09:33:44;;;;;;;18.77;10.70;;;;;;;10.84;100.00;101936.78;2615831;31;20125;-64
2021/10/17 09:36:27;;;;;;;19.92;10.45;;;;;;;10.94;100.00;101938.78;2615637;31;20102;-65
2021/10/17 09:39:04;;;;;;;15.85;9.25;;;;;;;11.16;100.00;101928.16;2615878;36;20594;-66
2021/10/17 09:41:36;;;;;;;15.27;9.98;;;;;;;11.03;100.00;101930.06;2615428;36;20065;-64
2021/10/17 09:44:06;;;;;;;14.45;9.90;;;;;;;11.15;100.00;101937.22;2615132;36;20034;-64
2021/10/17 09:46:35;;;;;;;13.70;8.88;;;;;;;11.01;100.00;101929.28;2614989;36;20590;-66
2021/10/17 09:49:18;;;;;;;12.88;9.55;;;;;;;11.00;100.00;101924.91;2615603;36;20022;-66
2021/10/17 09:51:48;;;;;;;20.85;10.23;;;;;;;11.02;100.00;101929.16;2615421;36;20106;-64
2021/10/17 09:54:22;;;;;;;16.73;10.30;;;;;;;11.02;100.00;101928.31;2616341;31;20552;-64
2021/10/17 09:56:50;;;;;;;15.48;9.73;;;;;;;11.21;100.00;101925.97;2615965;36;20484;-64
2021/10/17 12:12:16;;;;;;;11.43;5.60;;;;;;;13.59;100.00;101904.56;2614162;36;20041;-64
2021/10/17 12:14:44;;;;;;;14.45;6.10;;;;;;;13.52;100.00;101903.34;2615271;36;20038;-64
2021/10/17 12:17:16;;;;;;;10.75;6.00;;;;;;;13.80;100.00;101901.00;2615577;36;20155;-65
2021/10/17 12:19:45;;;;;;;13.57;5.78;;;;;;;13.65;100.00;101893.19;2615953;36;20162;-63
2021/10/17 12:22:13;;;;;;;10.55;5.55;;;;;;;13.63;100.00;101895.19;2615317;36;20209;-65
2021/10/17 12:24:41;;;;;;;9.60;4.90;;;;;;;13.56;100.00;101888.59;2615370;36;20451;-65
2021/10/17 12:27:09;;;;;;;8.05;5.28;;;;;;;13.72;100.00;101893.56;2615138;36;20046;-64
2021/10/17 12:29:40;;;;;;;11.70;5.97;;;;;;;13.49;100.00;101898.22;2614076;36;20063;-65
2021/10/17 12:32:08;;;;;;;12.30;5.75;;;;;;;13.56;100.00;101891.28;2615350;32;20039;-66
2021/10/17 12:34:41;;;;;;;11.35;5.95;;;;;;;13.78;100.00;101882.19;2615578;36;20154;-64
2021/10/17 12:37:10;;;;;;;8.10;5.43;;;;;;;13.74;100.00;101890.72;2613854;36;20114;-66
2021/10/17 12:39:39;;;;;;;8.65;5.40;;;;;;;13.80;100.00;101882.91;2615866;36;20494;-65
2021/10/17 12:42:08;;;;;;;;;;;;;;;13.74;100.00;101888.00;2614639;36;20134;-65
2021/10/17 12:44:48;;;;;;;13.02;5.93;;;;;;;13.88;100.00;101893.06;2613812;36;19953;-65
2021/10/17 12:47:20;;;;;;;11.77;5.57;;;;;;;14.06;100.00;101887.03;2615079;36;20057;-65
2021/10/17 12:49:48;;;;;;;9.20;6.03;;;;;;;13.87;100.00;101879.66;2615836;36;20041;-65
2021/10/17 12:52:29;;;;;;;7.80;5.40;;;;;;;14.21;100.00;101891.13;2615339;36;20030;-65
2021/10/17 12:55:00;;;;;;;9.70;6.13;;;;;;;14.06;100.00;101884.34;2615949;36;20030;-65
2021/10/17 12:57:29;;;;;;;8.85;5.32;;;;;;;13.91;100.00;101881.97;2615924;36;20030;-63
2021/10/17 13:02:36;;;;;;;10.15;5.35;;;;;;;14.07;100.00;101883.34;2615126;36;20065;-66
2021/10/17 13:05:08;;;;;;;9.63;5.95;;;;;;;14.04;100.00;101875.50;2616359;36;20035;-65
2021/10/17 13:07:37;;;;;;;9.85;5.55;;;;;;;14.02;100.00;101872.94;2615963;36;20058;-64
2021/10/17 13:10:09;;;;;;;9.95;5.20;;;;;;;13.81;100.00;101875.66;2615894;36;20027;-64
2021/10/17 13:12:46;;;;;;;10.60;5.70;;;;;;;13.84;100.00;101886.22;2616883;31;20122;-65
2021/10/17 13:15:18;;;;;;;9.43;5.35;;;;;;;13.87;100.00;101876.97;2616092;36;20503;-64
2021/10/17 13:17:51;;;;;;;10.23;5.93;;;;;;;13.75;100.00;101877.06;2616067;36;20031;-64
2021/10/17 13:20:21;;;;;;;12.80;6.10;;;;;;;13.75;100.00;101873.47;2615947;36;20163;-64
2021/10/17 13:22:52;;;;;;;12.35;6.15;;;;;;;13.90;100.00;101873.97;2615886;36;20142;-65
2021/10/17 13:25:22;;;;;;;12.27;6.18;;;;;;;13.89;100.00;101867.72;2615593;36;20630;-65
2021/10/17 13:27:52;;;;;;;10.50;5.47;;;;;;;14.03;100.00;101882.78;2615622;36;20619;-64
2021/10/17 13:30:20;;;;;;;11.18;5.93;;;;;;;13.76;100.00;101872.50;2615281;36;20700;-65
2021/10/17 13:32:52;;;;;;;7.45;5.63;;;;;;;13.87;100.00;101885.97;2615890;36;20169;-64
2021/10/17 13:35:20;;;;;;;10.90;5.30;;;;;;;14.01;100.00;101888.31;2616181;36;20118;-66
2021/10/17 13:37:49;;;;;;;9.38;5.45;;;;;;;13.89;100.00;101883.97;2615966;36;20035;-64
2021/10/17 13:40:21;;;;;;;8.95;5.25;;;;;;;13.87;100.00;101888.66;2615911;36;20122;-64
2021/10/17 13:42:50;;;;;;;10.93;5.55;;;;;;;13.81;100.00;101876.50;2616086;36;20030;-64
2021/10/17 13:45:18;;;;;;;9.20;5.22;;;;;;;13.66;100.00;101883.22;2616007;36;20150;-64
2021/10/17 13:47:46;;;;;;;7.60;4.95;;;;;;;13.66;100.00;101878.69;2615655;36;20130;-66
2021/10/17 13:50:17;;;;;;;11.25;5.57;;;;;;;13.58;100.00;101877.63;2615593;36;20035;-64